createdAt,value
2017-07-29T00:00:49.424Z,16.5
2017-07-29T00:01:49.254Z,16.5
2017-07-29T00:02:49.251Z,16.49
2017-07-29T00:03:49.247Z,16.55
2017-07-29T00:04:49.344Z,16.57
2017-07-29T00:05:49.338Z,16.58
2017-07-29T00:06:49.234Z,16.51
2017-07-29T00:07:49.074Z,16.5
2017-07-29T00:08:49.224Z,16.55
2017-07-29T00:09:49.215Z,16.57
2017-07-29T00:10:49.212Z,16.54
2017-07-29T00:11:49.226Z,16.44
2017-07-29T00:12:49.203Z,16.54
2017-07-29T00:13:49.308Z,16.49
2017-07-29T00:14:49.200Z,16.47
2017-07-29T00:15:49.197Z,16.47
2017-07-29T00:16:49.187Z,16.5
2017-07-29T00:17:49.186Z,16.51
2017-07-29T00:18:49.182Z,16.49
2017-07-29T00:19:49.300Z,16.49
2017-07-29T00:20:49.173Z,16.58
2017-07-29T00:21:49.172Z,16.47
2017-07-29T00:22:48.854Z,16.46
2017-07-29T00:23:49.152Z,16.51
2017-07-29T00:24:49.374Z,16.51
2017-07-29T00:25:48.841Z,16.46
2017-07-29T00:26:49.144Z,16.49
2017-07-29T00:27:49.143Z,16.5
2017-07-29T00:28:49.232Z,16.58
2017-07-29T00:29:49.128Z,16.58
2017-07-29T00:30:49.127Z,16.5
2017-07-29T00:31:49.121Z,16.5
2017-07-29T00:32:48.808Z,16.5
2017-07-29T00:33:49.317Z,16.5
2017-07-29T00:34:49.128Z,16.57
2017-07-29T00:35:49.103Z,16.62
2017-07-29T00:36:48.789Z,16.59
2017-07-29T00:37:49.094Z,16.59
2017-07-29T00:38:48.780Z,16.57
2017-07-29T00:39:49.238Z,16.58
2017-07-29T00:40:49.081Z,16.61
2017-07-29T00:41:49.079Z,16.62
2017-07-29T00:42:49.067Z,16.61
2017-07-29T00:43:49.082Z,16.69
2017-07-29T00:44:49.063Z,16.65
2017-07-29T00:45:49.058Z,16.58
2017-07-29T00:46:49.045Z,16.65
2017-07-29T00:47:49.210Z,16.62
2017-07-29T00:48:49.045Z,16.79
2017-07-29T00:49:49.159Z,16.69
2017-07-29T00:50:49.035Z,16.73
2017-07-29T00:51:49.029Z,16.77
2017-07-29T00:52:49.020Z,16.77
2017-07-29T00:53:49.029Z,16.74
2017-07-29T00:54:49.012Z,16.65
2017-07-29T00:55:49.011Z,16.72
2017-07-29T00:56:49.005Z,16.68
2017-07-29T00:57:48.694Z,16.69
2017-07-29T00:58:49.101Z,16.68
2017-07-29T00:59:48.993Z,16.65
2017-07-29T01:00:49.086Z,16.69
2017-07-29T01:01:48.989Z,16.62
2017-07-29T01:02:49.077Z,16.61
2017-07-29T01:03:48.973Z,16.59
2017-07-29T01:04:48.970Z,16.68
2017-07-29T01:05:48.964Z,16.55
2017-07-29T01:06:48.960Z,16.61
2017-07-29T01:07:48.952Z,16.59
2017-07-29T01:08:48.949Z,16.5
2017-07-29T01:09:49.146Z,16.55
2017-07-29T01:10:48.944Z,16.5
2017-07-29T01:11:48.944Z,16.43
2017-07-29T01:12:48.932Z,16.49
2017-07-29T01:13:48.927Z,16.51
2017-07-29T01:14:49.123Z,16.44
2017-07-29T01:15:48.920Z,16.41
2017-07-29T01:16:48.927Z,16.41
2017-07-29T01:17:48.912Z,16.34
2017-07-29T01:18:48.906Z,16.29
2017-07-29T01:19:48.903Z,16.25
2017-07-29T01:20:48.894Z,16.24
2017-07-29T01:21:49.099Z,16.22
2017-07-29T01:22:48.891Z,16.17
2017-07-29T01:23:48.581Z,16.16
2017-07-29T01:24:48.879Z,16.08
2017-07-29T01:25:48.873Z,16.1
2017-07-29T01:26:48.868Z,16.08
2017-07-29T01:27:48.558Z,16.1
2017-07-29T01:28:48.862Z,16.06
2017-07-29T01:29:48.860Z,15.94
2017-07-29T01:30:48.851Z,16.02
2017-07-29T01:31:48.996Z,15.98
2017-07-29T01:32:48.843Z,15.94
2017-07-29T01:33:48.836Z,16.02
2017-07-29T01:34:48.841Z,15.96
2017-07-29T01:35:48.519Z,15.94
2017-07-29T01:36:48.820Z,15.88
2017-07-29T01:37:48.969Z,15.87
2017-07-29T01:38:48.815Z,15.96
2017-07-29T01:39:48.811Z,15.84
2017-07-29T01:40:48.805Z,15.83
2017-07-29T01:41:48.593Z,15.91
2017-07-29T01:42:48.492Z,15.87
2017-07-29T01:43:48.793Z,15.85
2017-07-29T01:44:48.786Z,15.85
2017-07-29T01:45:48.783Z,15.83
2017-07-29T01:46:48.883Z,15.81
2017-07-29T01:47:48.770Z,15.83
2017-07-29T01:48:48.466Z,15.78
2017-07-29T01:49:48.461Z,15.84
2017-07-29T01:50:48.758Z,15.81
2017-07-29T01:51:48.751Z,15.73
2017-07-29T01:52:48.901Z,15.65
2017-07-29T01:53:48.892Z,15.73
2017-07-29T01:54:48.736Z,15.69
2017-07-29T01:55:48.736Z,15.72
2017-07-29T01:56:48.730Z,15.65
2017-07-29T01:57:48.724Z,15.69
2017-07-29T01:58:48.511Z,15.65
2017-07-29T01:59:48.723Z,15.76
2017-07-29T02:00:48.708Z,15.62
2017-07-29T02:01:48.811Z,15.59
2017-07-29T02:02:48.710Z,15.6
2017-07-29T02:03:48.702Z,15.57
2017-07-29T02:04:48.792Z,15.59
2017-07-29T02:05:48.787Z,15.57
2017-07-29T02:06:48.685Z,15.51
2017-07-29T02:07:48.680Z,15.47
2017-07-29T02:08:48.772Z,15.54
2017-07-29T02:09:48.772Z,15.47
2017-07-29T02:10:48.667Z,15.5
2017-07-29T02:11:48.353Z,15.41
2017-07-29T02:12:48.654Z,15.47
2017-07-29T02:13:48.647Z,15.29
2017-07-29T02:14:48.747Z,15.43
2017-07-29T02:15:48.741Z,15.39
2017-07-29T02:16:48.638Z,15.36
2017-07-29T02:17:48.632Z,15.36
2017-07-29T02:18:48.637Z,15.36
2017-07-29T02:19:48.824Z,15.33
2017-07-29T02:20:48.619Z,15.26
2017-07-29T02:21:48.611Z,15.37
2017-07-29T02:22:48.611Z,15.19
2017-07-29T02:23:48.603Z,15.23
2017-07-29T02:24:48.752Z,15.3
2017-07-29T02:25:48.595Z,15.3
2017-07-29T02:26:48.587Z,15.19
2017-07-29T02:27:48.583Z,15.27
2017-07-29T02:28:48.578Z,15.25
2017-07-29T02:29:48.577Z,15.22
2017-07-29T02:30:48.267Z,15.19
2017-07-29T02:31:48.723Z,15.18
2017-07-29T02:32:48.564Z,15.26
2017-07-29T02:33:48.249Z,15.25
2017-07-29T02:34:48.558Z,15.26
2017-07-29T02:35:48.549Z,15.27
2017-07-29T02:36:48.541Z,15.14
2017-07-29T02:37:48.537Z,15.1
2017-07-29T02:38:48.644Z,15.11
2017-07-29T02:39:48.534Z,15.18
2017-07-29T02:40:48.216Z,15.05
2017-07-29T02:41:48.531Z,15.12
2017-07-29T02:42:48.518Z,15.12
2017-07-29T02:43:48.619Z,15.12
2017-07-29T02:44:48.613Z,15.07
2017-07-29T02:45:48.502Z,15.08
2017-07-29T02:46:48.497Z,15.08
2017-07-29T02:47:48.490Z,15.08
2017-07-29T02:48:48.585Z,15.04
2017-07-29T02:49:48.485Z,15.04
2017-07-29T02:50:48.578Z,15.07
2017-07-29T02:51:48.473Z,15.04
2017-07-29T02:52:48.262Z,15.07
2017-07-29T02:53:48.564Z,15.05
2017-07-29T02:54:48.457Z,15.07
2017-07-29T02:55:48.459Z,15.1
2017-07-29T02:56:48.454Z,15.08
2017-07-29T02:57:48.443Z,14.99
2017-07-29T02:58:48.602Z,14.96
2017-07-29T02:59:48.432Z,15.02
2017-07-29T03:00:48.439Z,15.04
2017-07-29T03:01:48.423Z,14.99
2017-07-29T03:02:48.421Z,14.89
2017-07-29T03:03:48.413Z,14.89
2017-07-29T03:04:48.414Z,14.87
2017-07-29T03:05:48.404Z,14.93
2017-07-29T03:06:48.098Z,14.9
2017-07-29T03:07:48.394Z,14.94
2017-07-29T03:08:48.496Z,14.92
2017-07-29T03:09:48.390Z,14.86
2017-07-29T03:10:48.388Z,14.87
2017-07-29T03:11:48.378Z,14.93
2017-07-29T03:12:48.382Z,14.92
2017-07-29T03:13:48.374Z,14.9
2017-07-29T03:14:48.371Z,14.79
2017-07-29T03:15:48.052Z,14.92
2017-07-29T03:16:48.506Z,14.93
2017-07-29T03:17:48.452Z,14.77
2017-07-29T03:18:48.348Z,14.78
2017-07-29T03:19:48.340Z,14.94
2017-07-29T03:20:48.341Z,14.93
2017-07-29T03:21:48.334Z,14.86
2017-07-29T03:22:48.427Z,14.9
2017-07-29T03:23:48.319Z,14.82
2017-07-29T03:24:48.320Z,14.82
2017-07-29T03:25:48.315Z,14.86
2017-07-29T03:26:48.458Z,14.81
2017-07-29T03:27:48.308Z,14.82
2017-07-29T03:28:47.998Z,14.94
2017-07-29T03:29:48.294Z,14.82
2017-07-29T03:30:48.291Z,14.82
2017-07-29T03:31:48.387Z,14.86
2017-07-29T03:32:48.430Z,14.79
2017-07-29T03:33:47.968Z,14.78
2017-07-29T03:34:48.270Z,14.7
2017-07-29T03:35:48.263Z,14.7
2017-07-29T03:36:48.259Z,14.71
2017-07-29T03:37:48.256Z,14.66
2017-07-29T03:38:48.258Z,14.67
2017-07-29T03:39:48.445Z,14.73
2017-07-29T03:40:48.245Z,14.63
2017-07-29T03:41:48.238Z,14.71
2017-07-29T03:42:48.231Z,14.71
2017-07-29T03:43:48.479Z,14.7
2017-07-29T03:44:48.324Z,14.68
2017-07-29T03:45:48.216Z,14.71
2017-07-29T03:46:47.911Z,14.74
2017-07-29T03:47:48.209Z,14.66
2017-07-29T03:48:48.301Z,14.7
2017-07-29T03:49:48.346Z,14.67
2017-07-29T03:50:47.989Z,14.74
2017-07-29T03:51:48.186Z,14.7
2017-07-29T03:52:48.185Z,14.68
2017-07-29T03:53:48.178Z,14.7
2017-07-29T03:54:48.273Z,14.66
2017-07-29T03:55:48.169Z,14.62
2017-07-29T03:56:48.164Z,14.7
2017-07-29T03:57:48.161Z,14.68
2017-07-29T03:58:48.160Z,14.68
2017-07-29T03:59:47.944Z,14.62
2017-07-29T04:00:48.145Z,14.58
2017-07-29T04:01:48.241Z,14.62
2017-07-29T04:02:48.234Z,14.67
2017-07-29T04:03:48.128Z,14.66
2017-07-29T04:04:48.132Z,14.7
2017-07-29T04:05:48.129Z,14.67
2017-07-29T04:06:48.116Z,14.73
2017-07-29T04:07:48.119Z,14.73
2017-07-29T04:08:48.107Z,14.74
2017-07-29T04:09:48.109Z,14.77
2017-07-29T04:10:48.274Z,14.74
2017-07-29T04:11:48.091Z,14.71
2017-07-29T04:12:47.783Z,14.71
2017-07-29T04:13:48.082Z,14.68
2017-07-29T04:14:48.073Z,14.67
2017-07-29T04:15:48.228Z,14.73
2017-07-29T04:16:48.066Z,14.67
2017-07-29T04:17:48.063Z,14.79
2017-07-29T04:18:48.057Z,14.71
2017-07-29T04:19:48.160Z,14.81
2017-07-29T04:20:48.200Z,14.85
2017-07-29T04:21:48.042Z,14.85
2017-07-29T04:22:48.043Z,14.82
2017-07-29T04:23:48.035Z,14.89
2017-07-29T04:24:48.033Z,14.81
2017-07-29T04:25:48.029Z,14.99
2017-07-29T04:26:48.121Z,14.87
2017-07-29T04:27:47.812Z,14.97
2017-07-29T04:28:48.010Z,14.92
2017-07-29T04:29:48.010Z,14.9
2017-07-29T04:30:48.006Z,14.94
2017-07-29T04:31:48.247Z,14.92
2017-07-29T04:32:47.999Z,14.93
2017-07-29T04:33:47.983Z,14.96
2017-07-29T04:34:48.112Z,15.11
2017-07-29T04:35:47.672Z,15.05
2017-07-29T04:36:47.975Z,15.1
2017-07-29T04:37:47.968Z,15.07
2017-07-29T04:38:47.761Z,15.18
2017-07-29T04:39:47.955Z,15.25
2017-07-29T04:40:47.955Z,15.3
2017-07-29T04:41:47.947Z,15.45
2017-07-29T04:42:47.948Z,15.63
2017-07-29T04:43:48.041Z,15.96
2017-07-29T04:44:47.936Z,16.41
2017-07-29T04:45:47.933Z,16.69
2017-07-29T04:46:47.927Z,17.13
2017-07-29T04:47:47.925Z,17.32
2017-07-29T04:48:47.916Z,17.71
2017-07-29T04:49:47.912Z,17.84
2017-07-29T04:50:48.014Z,17.94
2017-07-29T04:51:47.597Z,18.03
2017-07-29T04:52:47.901Z,18.26
2017-07-29T04:53:48.001Z,18.41
2017-07-29T04:54:47.896Z,18.7
2017-07-29T04:55:47.886Z,18.98
2017-07-29T04:56:47.881Z,19.08
2017-07-29T04:57:47.604Z,19.29
2017-07-29T04:58:47.880Z,19.38
2017-07-29T04:59:47.561Z,19.7
2017-07-29T05:00:47.558Z,19.85
2017-07-29T05:01:47.860Z,19.96
2017-07-29T05:02:47.853Z,20.15
2017-07-29T05:03:47.849Z,20.32
2017-07-29T05:04:47.857Z,20.53
2017-07-29T05:05:47.841Z,20.56
2017-07-29T05:06:47.839Z,20.71
2017-07-29T05:07:47.839Z,20.9
2017-07-29T05:08:47.932Z,21.11
2017-07-29T05:09:47.821Z,21.23
2017-07-29T05:10:47.921Z,21.43
2017-07-29T05:11:47.817Z,21.62
2017-07-29T05:12:47.808Z,21.77
2017-07-29T05:13:47.809Z,22.03
2017-07-29T05:14:47.807Z,22.16
2017-07-29T05:15:47.800Z,22.34
2017-07-29T05:16:47.797Z,22.53
2017-07-29T05:17:47.791Z,22.62
2017-07-29T05:18:48.039Z,22.7
2017-07-29T05:19:47.782Z,22.77
2017-07-29T05:20:47.879Z,22.96
2017-07-29T05:21:47.789Z,23.07
2017-07-29T05:22:47.790Z,23.18
2017-07-29T05:23:47.768Z,23.26
2017-07-29T05:24:47.765Z,23.34
2017-07-29T05:25:47.462Z,23.34
2017-07-29T05:26:47.962Z,23.47
2017-07-29T05:27:47.754Z,23.55
2017-07-29T05:28:47.751Z,23.54
2017-07-29T05:29:47.749Z,23.56
2017-07-29T05:30:47.845Z,23.59
2017-07-29T05:31:47.741Z,23.71
2017-07-29T05:32:47.734Z,23.79
2017-07-29T05:33:47.736Z,23.96
2017-07-29T05:34:47.877Z,24.25
2017-07-29T05:35:47.831Z,24.38
2017-07-29T05:36:47.876Z,24.55
2017-07-29T05:37:47.727Z,24.55
2017-07-29T05:38:47.720Z,24.61
2017-07-29T05:39:47.967Z,24.82
2017-07-29T05:40:47.711Z,25.03
2017-07-29T05:41:47.861Z,25.11
2017-07-29T05:42:47.706Z,25.21
2017-07-29T05:43:47.703Z,25.44
2017-07-29T05:44:47.708Z,25.63
2017-07-29T05:45:47.492Z,25.8
2017-07-29T05:46:47.800Z,25.89
2017-07-29T05:47:47.791Z,26.04
2017-07-29T05:48:47.690Z,26.15
2017-07-29T05:49:47.690Z,26.13
2017-07-29T05:50:47.788Z,26.16
2017-07-29T05:51:47.686Z,26.23
2017-07-29T05:52:47.679Z,26.23
2017-07-29T05:53:47.673Z,26.41
2017-07-29T05:54:47.675Z,26.53
2017-07-29T05:55:47.777Z,26.68
2017-07-29T05:56:47.677Z,26.53
2017-07-29T05:57:47.667Z,26.55
2017-07-29T05:58:47.865Z,26.6
2017-07-29T05:59:47.769Z,26.48
2017-07-29T06:00:47.673Z,26.36
2017-07-29T06:01:47.667Z,26.39
2017-07-29T06:02:47.758Z,26.48
2017-07-29T06:03:47.657Z,26.53
2017-07-29T06:04:47.761Z,26.73
2017-07-29T06:05:47.353Z,26.59
2017-07-29T06:06:47.356Z,26.61
2017-07-29T06:07:47.651Z,26.48
2017-07-29T06:08:47.352Z,26.27
2017-07-29T06:09:47.347Z,25.92
2017-07-29T06:10:47.849Z,25.67
2017-07-29T06:11:47.645Z,25.25
2017-07-29T06:12:47.641Z,25.14
2017-07-29T06:13:47.648Z,24.82
2017-07-29T06:14:47.640Z,24.66
2017-07-29T06:15:47.739Z,24.56
2017-07-29T06:16:47.639Z,24.41
2017-07-29T06:17:47.636Z,24.48
2017-07-29T06:18:47.632Z,24.56
2017-07-29T06:19:47.731Z,24.53
2017-07-29T06:20:47.629Z,24.66
2017-07-29T06:21:47.727Z,24.47
2017-07-29T06:22:47.629Z,24.58
2017-07-29T06:23:47.627Z,24.61
2017-07-29T06:24:47.621Z,24.65
2017-07-29T06:25:47.628Z,24.84
2017-07-29T06:26:47.623Z,24.96
2017-07-29T06:27:47.616Z,24.99
2017-07-29T06:28:47.618Z,24.84
2017-07-29T06:29:47.710Z,24.81
2017-07-29T06:30:47.609Z,24.5
2017-07-29T06:31:47.401Z,24.51
2017-07-29T06:32:47.606Z,24.58
2017-07-29T06:33:47.702Z,24.56
2017-07-29T06:34:47.611Z,24.63
2017-07-29T06:35:47.747Z,24.66
2017-07-29T06:36:47.601Z,24.59
2017-07-29T06:37:47.593Z,24.62
2017-07-29T06:38:47.699Z,24.62
2017-07-29T06:39:47.589Z,24.65
2017-07-29T06:40:47.281Z,24.55
2017-07-29T06:41:47.587Z,24.4
2017-07-29T06:42:47.686Z,24.24
2017-07-29T06:43:47.286Z,24
2017-07-29T06:44:47.580Z,23.77
2017-07-29T06:45:47.682Z,23.66
2017-07-29T06:46:47.375Z,23.91
2017-07-29T06:47:47.578Z,24.36
2017-07-29T06:48:47.573Z,25.09
2017-07-29T06:49:47.565Z,25.86
2017-07-29T06:50:47.567Z,26.61
2017-07-29T06:51:47.263Z,27.25
2017-07-29T06:52:47.561Z,27.53
2017-07-29T06:53:47.560Z,27.55
2017-07-29T06:54:47.252Z,27.6
2017-07-29T06:55:47.557Z,27.43
2017-07-29T06:56:47.556Z,27.48
2017-07-29T06:57:47.558Z,27.29
2017-07-29T06:58:47.557Z,26.96
2017-07-29T06:59:47.647Z,26.83
2017-07-29T07:00:47.545Z,26.76
2017-07-29T07:01:47.543Z,26.36
2017-07-29T07:02:47.238Z,26.22
2017-07-29T07:03:47.244Z,25.8
2017-07-29T07:04:47.540Z,25.61
2017-07-29T07:05:47.544Z,25.48
2017-07-29T07:06:47.543Z,25.3
2017-07-29T07:07:47.537Z,25.34
2017-07-29T07:08:47.682Z,25.91
2017-07-29T07:09:47.226Z,26.52
2017-07-29T07:10:47.528Z,27.41
2017-07-29T07:11:47.526Z,28.03
2017-07-29T07:12:47.524Z,28.23
2017-07-29T07:13:47.524Z,28.45
2017-07-29T07:14:47.669Z,28.83
2017-07-29T07:15:47.524Z,29.27
2017-07-29T07:16:47.518Z,29.4
2017-07-29T07:17:47.539Z,29.58
2017-07-29T07:18:47.513Z,29.73
2017-07-29T07:19:47.514Z,30.18
2017-07-29T07:20:47.607Z,30.78
2017-07-29T07:21:47.509Z,31.29
2017-07-29T07:22:47.299Z,31.67
2017-07-29T07:23:47.506Z,32.07
2017-07-29T07:24:47.599Z,32.37
2017-07-29T07:25:47.602Z,32.73
2017-07-29T07:26:47.502Z,33.01
2017-07-29T07:27:47.497Z,33.22
2017-07-29T07:28:47.492Z,33.47
2017-07-29T07:29:47.497Z,33.53
2017-07-29T07:30:47.644Z,33.51
2017-07-29T07:31:47.592Z,33.81
2017-07-29T07:32:47.493Z,33.95
2017-07-29T07:33:47.492Z,34.18
2017-07-29T07:34:47.485Z,34.32
2017-07-29T07:35:47.586Z,34.33
2017-07-29T07:36:47.481Z,34.43
2017-07-29T07:37:47.478Z,34.5
2017-07-29T07:38:47.480Z,34.33
2017-07-29T07:39:47.479Z,34.32
2017-07-29T07:40:47.476Z,34.26
2017-07-29T07:41:47.477Z,34.41
2017-07-29T07:42:47.473Z,34.37
2017-07-29T07:43:47.472Z,34.4
2017-07-29T07:44:47.474Z,34.48
2017-07-29T07:45:47.567Z,34.63
2017-07-29T07:46:47.164Z,34.79
2017-07-29T07:47:47.560Z,34.73
2017-07-29T07:48:47.616Z,34.47
2017-07-29T07:49:47.462Z,34.31
2017-07-29T07:50:47.453Z,34.22
2017-07-29T07:51:47.458Z,34.43
2017-07-29T07:52:47.553Z,34.47
2017-07-29T07:53:47.452Z,34.65
2017-07-29T07:54:47.459Z,34.85
2017-07-29T07:55:47.448Z,35.05
2017-07-29T07:56:47.548Z,35.23
2017-07-29T07:57:47.470Z,35.22
2017-07-29T07:58:47.594Z,35.26
2017-07-29T07:59:47.241Z,35.37
2017-07-29T08:00:47.442Z,35.3
2017-07-29T08:01:47.538Z,35.26
2017-07-29T08:02:47.438Z,35.18
2017-07-29T08:03:47.545Z,35.19
2017-07-29T08:04:47.435Z,35.25
2017-07-29T08:05:47.126Z,35.32
2017-07-29T08:06:47.677Z,35.52
2017-07-29T08:07:47.430Z,35.59
2017-07-29T08:08:47.119Z,35.64
2017-07-29T08:09:47.433Z,35.45
2017-07-29T08:10:47.425Z,35.34
2017-07-29T08:11:47.418Z,35.16
2017-07-29T08:12:47.520Z,35
2017-07-29T08:13:47.516Z,35.15
2017-07-29T08:14:47.564Z,35.23
2017-07-29T08:15:47.413Z,35.35
2017-07-29T08:16:47.409Z,35.16
2017-07-29T08:17:47.412Z,34.81
2017-07-29T08:18:47.510Z,34.26
2017-07-29T08:19:47.250Z,34.11
2017-07-29T08:20:46.939Z,34.19
2017-07-29T08:21:47.439Z,34.44
2017-07-29T08:22:47.394Z,34.81
2017-07-29T08:23:47.398Z,35.07
2017-07-29T08:24:47.392Z,35.31
2017-07-29T08:25:47.494Z,35.49
2017-07-29T08:26:47.482Z,35.47
2017-07-29T08:27:47.383Z,35.27
2017-07-29T08:28:47.378Z,35.12
2017-07-29T08:29:47.477Z,35
2017-07-29T08:30:47.067Z,35.04
2017-07-29T08:31:47.477Z,35.19
2017-07-29T08:32:47.374Z,35.26
2017-07-29T08:33:47.366Z,35.34
2017-07-29T08:34:47.367Z,35.25
2017-07-29T08:35:47.461Z,35.16
2017-07-29T08:36:47.462Z,35.2
2017-07-29T08:37:47.361Z,35.18
2017-07-29T08:38:47.354Z,35.12
2017-07-29T08:39:47.352Z,35.2
2017-07-29T08:40:47.352Z,35.34
2017-07-29T08:41:47.349Z,35.49
2017-07-29T08:42:47.342Z,35.38
2017-07-29T08:43:47.342Z,35.18
2017-07-29T08:44:47.489Z,34.76
2017-07-29T08:45:47.335Z,34.32
2017-07-29T08:46:47.332Z,33.82
2017-07-29T08:47:47.332Z,33.16
2017-07-29T08:48:47.024Z,32.53
2017-07-29T08:49:47.025Z,31.9
2017-07-29T08:50:47.321Z,31.52
2017-07-29T08:51:47.320Z,31.04
2017-07-29T08:52:47.114Z,30.49
2017-07-29T08:53:47.312Z,30.1
2017-07-29T08:54:47.310Z,29.83
2017-07-29T08:55:47.411Z,29.47
2017-07-29T08:56:46.996Z,29.15
2017-07-29T08:57:46.995Z,28.87
2017-07-29T08:58:47.299Z,28.68
2017-07-29T08:59:47.299Z,28.52
2017-07-29T09:00:47.394Z,28.35
2017-07-29T09:01:47.292Z,28.35
2017-07-29T09:02:47.286Z,28.2
2017-07-29T09:03:47.281Z,28.27
2017-07-29T09:04:47.181Z,28.18
2017-07-29T09:05:47.082Z,28.06
2017-07-29T09:06:47.278Z,27.97
2017-07-29T09:07:47.293Z,27.83
2017-07-29T09:08:47.269Z,27.79
2017-07-29T09:09:47.366Z,27.63
2017-07-29T09:10:47.373Z,27.52
2017-07-29T09:11:47.258Z,27.48
2017-07-29T09:12:47.361Z,27.37
2017-07-29T09:13:47.252Z,27.28
2017-07-29T09:14:47.254Z,27.25
2017-07-29T09:15:46.945Z,27.18
2017-07-29T09:16:47.247Z,27.05
2017-07-29T09:17:47.039Z,27.03
2017-07-29T09:18:46.942Z,26.96
2017-07-29T09:19:47.237Z,26.96
2017-07-29T09:20:47.338Z,26.82
2017-07-29T09:21:46.927Z,26.85
2017-07-29T09:22:47.328Z,26.83
2017-07-29T09:23:47.226Z,26.89
2017-07-29T09:24:47.019Z,26.96
2017-07-29T09:25:47.219Z,26.98
2017-07-29T09:26:47.116Z,27
2017-07-29T09:27:47.215Z,27.03
2017-07-29T09:28:47.210Z,27.15
2017-07-29T09:29:47.209Z,27.25
2017-07-29T09:30:47.304Z,27.38
2017-07-29T09:31:47.061Z,27.57
2017-07-29T09:32:47.196Z,27.68
2017-07-29T09:33:47.196Z,27.75
2017-07-29T09:34:47.195Z,27.76
2017-07-29T09:35:47.202Z,27.79
2017-07-29T09:36:47.337Z,27.86
2017-07-29T09:37:47.289Z,27.85
2017-07-29T09:38:47.183Z,27.86
2017-07-29T09:39:47.184Z,27.81
2017-07-29T09:40:46.876Z,27.81
2017-07-29T09:41:47.174Z,27.83
2017-07-29T09:42:47.171Z,27.75
2017-07-29T09:43:47.169Z,27.75
2017-07-29T09:44:47.167Z,27.67
2017-07-29T09:45:47.266Z,27.44
2017-07-29T09:46:47.160Z,27.22
2017-07-29T09:47:46.954Z,27.05
2017-07-29T09:48:46.874Z,27.04
2017-07-29T09:49:47.153Z,26.91
2017-07-29T09:50:47.146Z,26.91
2017-07-29T09:51:47.144Z,26.92
2017-07-29T09:52:47.290Z,26.79
2017-07-29T09:53:47.241Z,26.71
2017-07-29T09:54:47.137Z,26.81
2017-07-29T09:55:47.136Z,26.74
2017-07-29T09:56:47.135Z,26.66
2017-07-29T09:57:47.135Z,26.59
2017-07-29T09:58:47.377Z,26.45
2017-07-29T09:59:47.123Z,26.27
2017-07-29T10:00:47.119Z,26.31
2017-07-29T10:01:47.118Z,26.22
2017-07-29T10:02:46.809Z,26.16
2017-07-29T10:03:47.365Z,26.27
2017-07-29T10:04:46.803Z,26.36
2017-07-29T10:05:47.106Z,26.52
2017-07-29T10:06:47.106Z,26.7
2017-07-29T10:07:46.795Z,26.76
2017-07-29T10:08:46.894Z,26.79
2017-07-29T10:09:47.097Z,26.81
2017-07-29T10:10:47.103Z,26.91
2017-07-29T10:11:47.090Z,26.83
2017-07-29T10:12:47.089Z,26.93
2017-07-29T10:13:47.083Z,27.01
2017-07-29T10:14:46.778Z,26.86
2017-07-29T10:15:47.075Z,26.73
2017-07-29T10:16:47.175Z,26.88
2017-07-29T10:17:47.070Z,26.76
2017-07-29T10:18:47.069Z,26.71
2017-07-29T10:19:47.070Z,26.82
2017-07-29T10:20:47.069Z,26.82
2017-07-29T10:21:47.157Z,26.83
2017-07-29T10:22:47.179Z,26.85
2017-07-29T10:23:47.051Z,26.85
2017-07-29T10:24:47.051Z,26.7
2017-07-29T10:25:47.045Z,26.7
2017-07-29T10:26:46.995Z,26.7
2017-07-29T10:27:47.045Z,26.67
2017-07-29T10:28:47.040Z,26.55
2017-07-29T10:29:47.136Z,26.49
2017-07-29T10:30:47.034Z,26.48
2017-07-29T10:31:47.131Z,26.36
2017-07-29T10:32:46.723Z,26.41
2017-07-29T10:33:47.023Z,26.3
2017-07-29T10:34:47.125Z,26.26
2017-07-29T10:35:46.729Z,26.3
2017-07-29T10:36:47.116Z,26.19
2017-07-29T10:37:47.111Z,26.16
2017-07-29T10:38:47.172Z,26.1
2017-07-29T10:39:46.710Z,26.08
2017-07-29T10:40:46.803Z,26.04
2017-07-29T10:41:47.000Z,25.98
2017-07-29T10:42:47.001Z,25.99
2017-07-29T10:43:46.995Z,26.03
2017-07-29T10:44:47.000Z,25.99
2017-07-29T10:45:46.687Z,25.99
2017-07-29T10:46:46.687Z,25.95
2017-07-29T10:47:46.679Z,25.95
2017-07-29T10:48:47.127Z,25.96
2017-07-29T10:49:46.981Z,25.81
2017-07-29T10:50:47.075Z,25.81
2017-07-29T10:51:46.976Z,25.74
2017-07-29T10:52:47.131Z,25.76
2017-07-29T10:53:46.812Z,25.85
2017-07-29T10:54:46.965Z,25.85
2017-07-29T10:55:46.958Z,25.95
2017-07-29T10:56:46.965Z,25.91
2017-07-29T10:57:46.955Z,25.99
2017-07-29T10:58:46.952Z,26.08
2017-07-29T10:59:46.685Z,26.08
2017-07-29T11:00:46.944Z,26.19
2017-07-29T11:01:46.636Z,26.22
2017-07-29T11:02:46.942Z,26.18
2017-07-29T11:03:46.936Z,26.19
2017-07-29T11:04:47.037Z,26.1
2017-07-29T11:05:46.932Z,26.01
2017-07-29T11:06:46.926Z,26.15
2017-07-29T11:07:47.031Z,26.18
2017-07-29T11:08:46.925Z,26.11
2017-07-29T11:09:47.077Z,26.15
2017-07-29T11:10:47.019Z,26.08
2017-07-29T11:11:46.914Z,26.1
2017-07-29T11:12:46.915Z,26.03
2017-07-29T11:13:46.913Z,26.1
2017-07-29T11:14:46.901Z,26.04
2017-07-29T11:15:46.999Z,26.01
2017-07-29T11:16:46.899Z,26.01
2017-07-29T11:17:46.890Z,25.92
2017-07-29T11:18:46.688Z,25.88
2017-07-29T11:19:46.897Z,25.86
2017-07-29T11:20:46.984Z,25.91
2017-07-29T11:21:46.989Z,25.78
2017-07-29T11:22:46.881Z,25.86
2017-07-29T11:23:46.573Z,25.78
2017-07-29T11:24:46.672Z,25.71
2017-07-29T11:25:46.872Z,25.77
2017-07-29T11:26:46.869Z,25.67
2017-07-29T11:27:46.863Z,25.68
2017-07-29T11:28:46.858Z,25.63
2017-07-29T11:29:46.957Z,25.58
2017-07-29T11:30:47.008Z,25.55
2017-07-29T11:31:46.854Z,25.52
2017-07-29T11:32:46.852Z,25.49
2017-07-29T11:33:46.849Z,25.51
2017-07-29T11:34:46.947Z,25.46
2017-07-29T11:35:47.138Z,25.63
2017-07-29T11:36:46.983Z,25.55
2017-07-29T11:37:46.857Z,25.58
2017-07-29T11:38:46.841Z,25.54
2017-07-29T11:39:46.823Z,25.58
2017-07-29T11:40:46.834Z,25.61
2017-07-29T11:41:46.820Z,25.62
2017-07-29T11:42:46.920Z,25.71
2017-07-29T11:43:46.911Z,25.62
2017-07-29T11:44:46.810Z,25.74
2017-07-29T11:45:46.811Z,25.7
2017-07-29T11:46:46.907Z,25.59
2017-07-29T11:47:46.493Z,25.63
2017-07-29T11:48:46.801Z,25.49
2017-07-29T11:49:46.800Z,25.48
2017-07-29T11:50:46.794Z,25.48
2017-07-29T11:51:46.794Z,25.48
2017-07-29T11:52:46.888Z,25.49
2017-07-29T11:53:46.787Z,25.43
2017-07-29T11:54:46.880Z,25.4
2017-07-29T11:55:46.803Z,25.34
2017-07-29T11:56:46.771Z,25.31
2017-07-29T11:57:46.777Z,25.33
2017-07-29T11:58:46.477Z,25.31
2017-07-29T11:59:46.761Z,25.29
2017-07-29T12:00:46.763Z,25.33
2017-07-29T12:01:46.756Z,25.37
2017-07-29T12:02:46.610Z,25.4
2017-07-29T12:03:46.750Z,25.48
2017-07-29T12:04:46.756Z,25.54
2017-07-29T12:05:46.767Z,25.62
2017-07-29T12:06:46.739Z,25.73
2017-07-29T12:07:46.634Z,25.73
2017-07-29T12:08:46.739Z,25.78
2017-07-29T12:09:46.833Z,25.89
2017-07-29T12:10:46.729Z,25.95
2017-07-29T12:11:46.425Z,26.01
2017-07-29T12:12:46.515Z,26.1
2017-07-29T12:13:46.721Z,26.13
2017-07-29T12:14:46.718Z,26.08
2017-07-29T12:15:46.410Z,26.18
2017-07-29T12:16:46.713Z,26.18
2017-07-29T12:17:46.732Z,26.11
2017-07-29T12:18:46.856Z,26.16
2017-07-29T12:19:46.807Z,26.18
2017-07-29T12:20:46.702Z,26.1
2017-07-29T12:21:46.708Z,26.11
2017-07-29T12:22:46.802Z,26.29
2017-07-29T12:23:46.691Z,26.29
2017-07-29T12:24:46.383Z,26.26
2017-07-29T12:25:46.686Z,26.27
2017-07-29T12:26:46.687Z,26.41
2017-07-29T12:27:46.687Z,26.41
2017-07-29T12:28:46.779Z,26.45
2017-07-29T12:29:46.671Z,26.44
2017-07-29T12:30:46.769Z,26.59
2017-07-29T12:31:46.690Z,26.59
2017-07-29T12:32:46.767Z,26.67
2017-07-29T12:33:46.761Z,26.74
2017-07-29T12:34:46.656Z,26.81
2017-07-29T12:35:46.348Z,26.73
2017-07-29T12:36:46.758Z,26.85
2017-07-29T12:37:46.653Z,26.85
2017-07-29T12:38:46.749Z,26.81
2017-07-29T12:39:46.649Z,26.83
2017-07-29T12:40:46.340Z,26.83
2017-07-29T12:41:46.740Z,26.89
2017-07-29T12:42:46.638Z,26.93
2017-07-29T12:43:46.734Z,26.92
2017-07-29T12:44:46.636Z,26.92
2017-07-29T12:45:46.633Z,26.97
2017-07-29T12:46:46.731Z,27.04
2017-07-29T12:47:46.317Z,27.04
2017-07-29T12:48:46.315Z,27.04
2017-07-29T12:49:46.712Z,27.07
2017-07-29T12:50:46.309Z,27.16
2017-07-29T12:51:46.710Z,27.18
2017-07-29T12:52:46.610Z,27.19
2017-07-29T12:53:46.310Z,27.23
2017-07-29T12:54:46.396Z,27.28
2017-07-29T12:55:46.499Z,27.37